sensor_id;sensor_type;location;lat;lon;timestamp;temperature;humidity
8591;DHT22;4333;48.322;14.340;2024-03-02T00:01:15;6.70;99.90
8591;DHT22;4333;48.322;14.340;2024-03-02T00:03:42;6.70;99.90
8591;DHT22;4333;48.322;14.340;2024-03-02T00:06:09;6.70;99.90
8591;DHT22;4333;48.322;14.340;2024-03-02T00:08:35;6.60;99.90
8591;DHT22;4333;48.322;14.340;2024-03-02T00:11:03;6.60;99.90
8591;DHT22;4333;48.322;14.340;2024-03-02T00:13:29;6.50;99.90
8591;DHT22;4333;48.322;14.340;2024-03-02T00:15:57;6.40;99.90
8591;DHT22;4333;48.322;14.340;2024-03-02T00:18:30;6.40;99.90
8591;DHT22;4333;48.322;14.340;2024-03-02T00:21:00;6.40;99.90
8591;DHT22;4333;48.322;14.340;2024-03-02T00:23:33;6.30;99.90
8591;DHT22;4333;48.322;14.340;2024-03-02T00:26:00;6.20;99.90
8591;DHT22;4333;48.322;14.340;2024-03-02T00:28:34;6.10;99.90
8591;DHT22;4333;48.322;14.340;2024-03-02T00:33:38;5.90;99.90
8591;DHT22;4333;48.322;14.340;2024-03-02T00:36:07;5.70;99.90
8591;DHT22;4333;48.322;14.340;2024-03-02T00:38:34;5.60;99.90
8591;DHT22;4333;48.322;14.340;2024-03-02T00:41:19;5.40;99.90
8591;DHT22;4333;48.322;14.340;2024-03-02T00:44:09;5.40;99.90
8591;DHT22;4333;48.322;14.340;2024-03-02T00:46:40;5.50;99.90
8591;DHT22;4333;48.322;14.340;2024-03-02T00:49:22;5.60;99.90
8591;DHT22;4333;48.322;14.340;2024-03-02T00:51:50;5.50;99.90
8591;DHT22;4333;48.322;14.340;2024-03-02T00:54:22;5.50;99.90
8591;DHT22;4333;48.322;14.340;2024-03-02T00:56:50;5.50;99.90
8591;DHT22;4333;48.322;14.340;2024-03-02T00:59:16;5.30;99.90
8591;DHT22;4333;48.322;14.340;2024-03-02T01:01:42;5.20;99.90
8591;DHT22;4333;48.322;14.340;2024-03-02T01:04:08;5.20;99.90
8591;DHT22;4333;48.322;14.340;2024-03-02T01:06:35;5.30;99.90
8591;DHT22;4333;48.322;14.340;2024-03-02T01:09:02;5.40;99.90
8591;DHT22;4333;48.322;14.340;2024-03-02T01:11:31;5.50;99.90
8591;DHT22;4333;48.322;14.340;2024-03-02T01:13:57;5.30;99.90
8591;DHT22;4333;48.322;14.340;2024-03-02T01:16:23;5.00;99.90
8591;DHT22;4333;48.322;14.340;2024-03-02T01:18:51;5.00;99.90
8591;DHT22;4333;48.322;14.340;2024-03-02T01:21:20;5.00;99.90
8591;DHT22;4333;48.322;14.340;2024-03-02T01:23:46;5.10;99.90
8591;DHT22;4333;48.322;14.340;2024-03-02T01:26:12;5.10;99.90
8591;DHT22;4333;48.322;14.340;2024-03-02T01:28:38;5.00;99.90
8591;DHT22;4333;48.322;14.340;2024-03-02T01:31:04;5.10;99.90
8591;DHT22;4333;48.322;14.340;2024-03-02T01:33:29;5.10;99.90
8591;DHT22;4333;48.322;14.340;2024-03-02T01:35:55;5.20;99.90
8591;DHT22;4333;48.322;14.340;2024-03-02T01:38:21;5.20;99.90
8591;DHT22;4333;48.322;14.340;2024-03-02T01:40:47;5.20;99.90
8591;DHT22;4333;48.322;14.340;2024-03-02T01:43:13;5.10;99.90
8591;DHT22;4333;48.322;14.340;2024-03-02T01:45:41;5.10;99.90
8591;DHT22;4333;48.322;14.340;2024-03-02T01:48:07;5.20;99.90
8591;DHT22;4333;48.322;14.340;2024-03-02T01:50:33;5.20;99.90
8591;DHT22;4333;48.322;14.340;2024-03-02T01:53:03;5.30;99.90
8591;DHT22;4333;48.322;14.340;2024-03-02T01:55:29;5.30;99.90
8591;DHT22;4333;48.322;14.340;2024-03-02T01:57:56;5.40;99.90
8591;DHT22;4333;48.322;14.340;2024-03-02T02:00:22;5.40;99.90
8591;DHT22;4333;48.322;14.340;2024-03-02T02:02:50;5.50;99.90
8591;DHT22;4333;48.322;14.340;2024-03-02T02:05:17;5.60;99.90
8591;DHT22;4333;48.322;14.340;2024-03-02T02:07:43;5.50;99.90
8591;DHT22;4333;48.322;14.340;2024-03-02T02:10:12;5.60;99.90
8591;DHT22;4333;48.322;14.340;2024-03-02T02:12:38;5.60;99.90
8591;DHT22;4333;48.322;14.340;2024-03-02T02:15:23;5.50;99.90
8591;DHT22;4333;48.322;14.340;2024-03-02T02:17:49;5.60;99.90
8591;DHT22;4333;48.322;14.340;2024-03-02T02:20:18;5.60;99.90
8591;DHT22;4333;48.322;14.340;2024-03-02T02:22:58;5.60;99.90
8591;DHT22;4333;48.322;14.340;2024-03-02T02:25:27;5.70;99.90
8591;DHT22;4333;48.322;14.340;2024-03-02T02:27:53;5.80;99.90
8591;DHT22;4333;48.322;14.340;2024-03-02T02:30:29;5.80;99.90
8591;DHT22;4333;48.322;14.340;2024-03-02T02:32:58;5.80;99.90
8591;DHT22;4333;48.322;14.340;2024-03-02T02:35:23;5.90;99.90
8591;DHT22;4333;48.322;14.340;2024-03-02T02:37:50;5.80;99.90
8591;DHT22;4333;48.322;14.340;2024-03-02T02:40:16;5.80;99.90
8591;DHT22;4333;48.322;14.340;2024-03-02T02:42:49;5.80;99.90
8591;DHT22;4333;48.322;14.340;2024-03-02T02:45:15;5.70;99.90
8591;DHT22;4333;48.322;14.340;2024-03-02T02:47:41;5.80;99.90
8591;DHT22;4333;48.322;14.340;2024-03-02T02:50:10;5.90;99.90
8591;DHT22;4333;48.322;14.340;2024-03-02T02:52:41;5.90;99.90
8591;DHT22;4333;48.322;14.340;2024-03-02T02:55:12;5.90;99.90
8591;DHT22;4333;48.322;14.340;2024-03-02T02:57:42;5.90;99.90
8591;DHT22;4333;48.322;14.340;2024-03-02T03:00:20;5.90;99.90
8591;DHT22;4333;48.322;14.340;2024-03-02T03:02:50;5.90;99.90
8591;DHT22;4333;48.322;14.340;2024-03-02T03:05:16;5.90;99.90
8591;DHT22;4333;48.322;14.340;2024-03-02T03:07:43;6.00;99.90
8591;DHT22;4333;48.322;14.340;2024-03-02T03:10:10;6.00;99.90
8591;DHT22;4333;48.322;14.340;2024-03-02T03:12:43;6.00;99.90
8591;DHT22;4333;48.322;14.340;2024-03-02T03:15:09;6.10;99.90
8591;DHT22;4333;48.322;14.340;2024-03-02T03:17:36;6.10;99.90
8591;DHT22;4333;48.322;14.340;2024-03-02T03:20:03;6.20;99.90
8591;DHT22;4333;48.322;14.340;2024-03-02T03:22:33;6.10;99.90
8591;DHT22;4333;48.322;14.340;2024-03-02T03:25:00;6.10;99.90
8591;DHT22;4333;48.322;14.340;2024-03-02T03:27:26;6.00;99.90
8591;DHT22;4333;48.322;14.340;2024-03-02T03:29:52;6.00;99.90
8591;DHT22;4333;48.322;14.340;2024-03-02T03:32:18;6.00;99.90
8591;DHT22;4333;48.322;14.340;2024-03-02T03:34:43;6.00;99.90
8591;DHT22;4333;48.322;14.340;2024-03-02T03:37:09;6.00;99.90
8591;DHT22;4333;48.322;14.340;2024-03-02T03:39:37;6.00;99.90
8591;DHT22;4333;48.322;14.340;2024-03-02T03:42:04;6.10;99.90
8591;DHT22;4333;48.322;14.340;2024-03-02T03:44:30;6.10;99.90
8591;DHT22;4333;48.322;14.340;2024-03-02T03:46:55;6.10;99.90
8591;DHT22;4333;48.322;14.340;2024-03-02T03:49:21;6.10;99.90
8591;DHT22;4333;48.322;14.340;2024-03-02T03:51:49;6.10;99.90
8591;DHT22;4333;48.322;14.340;2024-03-02T03:54:15;6.20;99.90
8591;DHT22;4333;48.322;14.340;2024-03-02T03:56:41;6.30;99.90
8591;DHT22;4333;48.322;14.340;2024-03-02T03:59:07;6.40;99.90
8591;DHT22;4333;48.322;14.340;2024-03-02T04:01:32;6.40;99.90
8591;DHT22;4333;48.322;14.340;2024-03-02T04:03:59;6.40;99.90
8591;DHT22;4333;48.322;14.340;2024-03-02T04:06:25;6.40;99.90
8591;DHT22;4333;48.322;14.340;2024-03-02T04:08:51;6.50;99.90
8591;DHT22;4333;48.322;14.340;2024-03-02T04:11:16;6.50;99.90
8591;DHT22;4333;48.322;14.340;2024-03-02T04:13:45;6.60;99.90
8591;DHT22;4333;48.322;14.340;2024-03-02T04:16:11;6.60;99.90
8591;DHT22;4333;48.322;14.340;2024-03-02T04:18:37;6.60;99.90
8591;DHT22;4333;48.322;14.340;2024-03-02T04:21:05;6.40;99.90
8591;DHT22;4333;48.322;14.340;2024-03-02T04:23:30;6.30;99.90
8591;DHT22;4333;48.322;14.340;2024-03-02T04:25:56;6.30;99.90
8591;DHT22;4333;48.322;14.340;2024-03-02T04:28:22;6.30;99.90
8591;DHT22;4333;48.322;14.340;2024-03-02T04:30:47;6.30;99.90
8591;DHT22;4333;48.322;14.340;2024-03-02T04:33:13;6.30;99.90
8591;DHT22;4333;48.322;14.340;2024-03-02T04:35:39;6.30;99.90
8591;DHT22;4333;48.322;14.340;2024-03-02T04:38:05;6.20;99.90
8591;DHT22;4333;48.322;14.340;2024-03-02T04:40:35;6.20;99.90
8591;DHT22;4333;48.322;14.340;2024-03-02T04:43:03;6.20;99.90
8591;DHT22;4333;48.322;14.340;2024-03-02T04:45:29;6.20;99.90
8591;DHT22;4333;48.322;14.340;2024-03-02T04:47:55;6.20;99.90
8591;DHT22;4333;48.322;14.340;2024-03-02T04:50:23;6.30;99.90
8591;DHT22;4333;48.322;14.340;2024-03-02T04:52:48;6.40;99.90
8591;DHT22;4333;48.322;14.340;2024-03-02T04:55:14;6.40;99.90
8591;DHT22;4333;48.322;14.340;2024-03-02T04:57:43;6.30;99.90
8591;DHT22;4333;48.322;14.340;2024-03-02T05:00:11;6.30;99.90
8591;DHT22;4333;48.322;14.340;2024-03-02T05:02:38;6.30;99.90
8591;DHT22;4333;48.322;14.340;2024-03-02T05:05:04;6.40;99.90
8591;DHT22;4333;48.322;14.340;2024-03-02T05:07:29;6.40;99.90
8591;DHT22;4333;48.322;14.340;2024-03-02T05:09:55;6.40;99.90
8591;DHT22;4333;48.322;14.340;2024-03-02T05:12:21;6.30;99.90
8591;DHT22;4333;48.322;14.340;2024-03-02T05:15:06;6.20;99.90
8591;DHT22;4333;48.322;14.340;2024-03-02T05:17:33;6.30;99.90
8591;DHT22;4333;48.322;14.340;2024-03-02T05:20:01;6.30;99.90
8591;DHT22;4333;48.322;14.340;2024-03-02T05:22:27;6.40;99.90
8591;DHT22;4333;48.322;14.340;2024-03-02T05:24:55;6.30;99.90
8591;DHT22;4333;48.322;14.340;2024-03-02T05:27:24;6.30;99.90
8591;DHT22;4333;48.322;14.340;2024-03-02T05:29:50;6.30;99.90
8591;DHT22;4333;48.322;14.340;2024-03-02T05:32:16;6.30;99.90
8591;DHT22;4333;48.322;14.340;2024-03-02T05:34:41;6.40;99.90
8591;DHT22;4333;48.322;14.340;2024-03-02T05:37:12;6.40;99.90
8591;DHT22;4333;48.322;14.340;2024-03-02T05:39:40;6.30;99.90
8591;DHT22;4333;48.322;14.340;2024-03-02T05:42:06;6.30;99.90
8591;DHT22;4333;48.322;14.340;2024-03-02T05:44:34;6.20;99.90
8591;DHT22;4333;48.322;14.340;2024-03-02T05:47:03;6.20;99.90
8591;DHT22;4333;48.322;14.340;2024-03-02T05:49:29;6.30;99.90
8591;DHT22;4333;48.322;14.340;2024-03-02T05:51:55;6.30;99.90
8591;DHT22;4333;48.322;14.340;2024-03-02T05:54:23;6.30;99.90
8591;DHT22;4333;48.322;14.340;2024-03-02T05:56:49;6.30;99.90
8591;DHT22;4333;48.322;14.340;2024-03-02T05:59:15;6.30;99.90
8591;DHT22;4333;48.322;14.340;2024-03-02T06:01:50;6.40;99.90
8591;DHT22;4333;48.322;14.340;2024-03-02T06:04:17;6.40;99.90
8591;DHT22;4333;48.322;14.340;2024-03-02T06:06:43;6.30;99.90
8591;DHT22;4333;48.322;14.340;2024-03-02T06:09:11;6.30;99.90
8591;DHT22;4333;48.322;14.340;2024-03-02T06:11:40;6.30;99.90
8591;DHT22;4333;48.322;14.340;2024-03-02T06:14:08;6.30;99.90
8591;DHT22;4333;48.322;14.340;2024-03-02T06:16:34;6.30;99.90
8591;DHT22;4333;48.322;14.340;2024-03-02T06:19:00;6.30;99.90
8591;DHT22;4333;48.322;14.340;2024-03-02T06:21:29;6.40;99.90
8591;DHT22;4333;48.322;14.340;2024-03-02T06:23:55;6.50;99.90
8591;DHT22;4333;48.322;14.340;2024-03-02T06:26:22;6.60;99.90
8591;DHT22;4333;48.322;14.340;2024-03-02T06:28:47;6.70;99.90
8591;DHT22;4333;48.322;14.340;2024-03-02T06:31:13;6.80;99.90
8591;DHT22;4333;48.322;14.340;2024-03-02T06:33:39;6.80;99.90
8591;DHT22;4333;48.322;14.340;2024-03-02T06:36:05;6.90;99.90
8591;DHT22;4333;48.322;14.340;2024-03-02T06:38:34;7.00;99.90
8591;DHT22;4333;48.322;14.340;2024-03-02T06:40:59;7.00;99.90
8591;DHT22;4333;48.322;14.340;2024-03-02T06:43:25;7.10;99.90
8591;DHT22;4333;48.322;14.340;2024-03-02T06:45:51;7.20;99.90
8591;DHT22;4333;48.322;14.340;2024-03-02T06:48:18;7.20;99.90
8591;DHT22;4333;48.322;14.340;2024-03-02T06:50:50;7.20;99.90
8591;DHT22;4333;48.322;14.340;2024-03-02T06:53:18;7.30;99.90
8591;DHT22;4333;48.322;14.340;2024-03-02T06:55:45;7.30;99.90
8591;DHT22;4333;48.322;14.340;2024-03-02T06:58:12;7.50;99.90
8591;DHT22;4333;48.322;14.340;2024-03-02T07:00:37;7.50;99.90
8591;DHT22;4333;48.322;14.340;2024-03-02T07:03:04;7.50;99.90
8591;DHT22;4333;48.322;14.340;2024-03-02T07:05:30;7.60;99.90
8591;DHT22;4333;48.322;14.340;2024-03-02T07:07:58;7.60;99.90
8591;DHT22;4333;48.322;14.340;2024-03-02T07:10:26;7.70;99.90
8591;DHT22;4333;48.322;14.340;2024-03-02T07:12:54;7.70;99.90
8591;DHT22;4333;48.322;14.340;2024-03-02T07:15:20;7.80;99.90
8591;DHT22;4333;48.322;14.340;2024-03-02T07:18:04;7.80;99.90
8591;DHT22;4333;48.322;14.340;2024-03-02T07:20:30;7.90;99.90
8591;DHT22;4333;48.322;14.340;2024-03-02T07:22:56;8.00;99.90
8591;DHT22;4333;48.322;14.340;2024-03-02T07:25:26;8.00;99.90
8591;DHT22;4333;48.322;14.340;2024-03-02T07:27:53;8.00;99.90
8591;DHT22;4333;48.322;14.340;2024-03-02T07:30:19;8.00;99.90
8591;DHT22;4333;48.322;14.340;2024-03-02T07:32:45;8.00;99.90
8591;DHT22;4333;48.322;14.340;2024-03-02T07:35:14;8.10;99.90
8591;DHT22;4333;48.322;14.340;2024-03-02T07:37:44;8.10;99.90
8591;DHT22;4333;48.322;14.340;2024-03-02T07:40:10;8.10;99.90
8591;DHT22;4333;48.322;14.340;2024-03-02T07:42:40;8.10;99.90
8591;DHT22;4333;48.322;14.340;2024-03-02T07:45:07;8.10;99.90
8591;DHT22;4333;48.322;14.340;2024-03-02T07:47:36;8.20;99.90
8591;DHT22;4333;48.322;14.340;2024-03-02T07:50:02;8.20;99.90
8591;DHT22;4333;48.322;14.340;2024-03-02T07:52:32;8.30;99.90
8591;DHT22;4333;48.322;14.340;2024-03-02T07:54:58;8.30;99.90
8591;DHT22;4333;48.322;14.340;2024-03-02T07:57:24;8.40;99.90
8591;DHT22;4333;48.322;14.340;2024-03-02T07:59:50;8.40;99.90
8591;DHT22;4333;48.322;14.340;2024-03-02T08:02:19;8.50;99.90
8591;DHT22;4333;48.322;14.340;2024-03-02T08:04:46;8.50;99.90
8591;DHT22;4333;48.322;14.340;2024-03-02T08:07:18;8.60;99.90
8591;DHT22;4333;48.322;14.340;2024-03-02T08:09:44;8.70;99.90
8591;DHT22;4333;48.322;14.340;2024-03-02T08:12:13;8.80;99.90
8591;DHT22;4333;48.322;14.340;2024-03-02T08:14:42;8.90;99.90
8591;DHT22;4333;48.322;14.340;2024-03-02T08:17:08;9.00;99.90
8591;DHT22;4333;48.322;14.340;2024-03-02T08:19:38;9.20;99.90
8591;DHT22;4333;48.322;14.340;2024-03-02T08:22:04;9.20;99.90
8591;DHT22;4333;48.322;14.340;2024-03-02T08:24:33;9.30;99.90
8591;DHT22;4333;48.322;14.340;2024-03-02T08:27:10;9.30;99.90
8591;DHT22;4333;48.322;14.340;2024-03-02T08:29:50;9.30;99.90
8591;DHT22;4333;48.322;14.340;2024-03-02T08:32:26;9.40;99.90
8591;DHT22;4333;48.322;14.340;2024-03-02T08:34:55;9.40;99.90
8591;DHT22;4333;48.322;14.340;2024-03-02T08:37:26;9.30;99.90
8591;DHT22;4333;48.322;14.340;2024-03-02T08:39:52;9.40;99.90
8591;DHT22;4333;48.322;14.340;2024-03-02T08:42:18;9.40;99.90
8591;DHT22;4333;48.322;14.340;2024-03-02T08:44:46;9.40;99.90
8591;DHT22;4333;48.322;14.340;2024-03-02T08:47:39;9.50;99.90
8591;DHT22;4333;48.322;14.340;2024-03-02T08:50:05;9.50;99.90
8591;DHT22;4333;48.322;14.340;2024-03-02T08:52:34;9.50;99.90
8591;DHT22;4333;48.322;14.340;2024-03-02T08:55:10;9.50;99.90
8591;DHT22;4333;48.322;14.340;2024-03-02T08:57:39;9.50;99.90
8591;DHT22;4333;48.322;14.340;2024-03-02T09:00:06;9.50;99.90
8591;DHT22;4333;48.322;14.340;2024-03-02T09:02:34;9.40;99.90
8591;DHT22;4333;48.322;14.340;2024-03-02T09:05:01;9.30;99.90
8591;DHT22;4333;48.322;14.340;2024-03-02T09:07:27;9.10;99.90
8591;DHT22;4333;48.322;14.340;2024-03-02T09:09:53;9.00;99.90
8591;DHT22;4333;48.322;14.340;2024-03-02T09:12:19;8.90;99.90
8591;DHT22;4333;48.322;14.340;2024-03-02T09:14:45;8.90;99.90
8591;DHT22;4333;48.322;14.340;2024-03-02T09:17:12;8.90;99.90
8591;DHT22;4333;48.322;14.340;2024-03-02T09:19:41;8.90;99.90
8591;DHT22;4333;48.322;14.340;2024-03-02T09:22:07;8.90;99.90
8591;DHT22;4333;48.322;14.340;2024-03-02T09:24:38;8.80;99.90
8591;DHT22;4333;48.322;14.340;2024-03-02T09:27:07;8.80;99.90
8591;DHT22;4333;48.322;14.340;2024-03-02T09:29:33;8.70;99.90
8591;DHT22;4333;48.322;14.340;2024-03-02T09:32:02;8.70;99.90
8591;DHT22;4333;48.322;14.340;2024-03-02T09:34:32;8.70;99.90
8591;DHT22;4333;48.322;14.340;2024-03-02T09:36:58;8.60;99.90
8591;DHT22;4333;48.322;14.340;2024-03-02T09:39:24;8.70;99.90
8591;DHT22;4333;48.322;14.340;2024-03-02T09:41:53;8.60;99.90
8591;DHT22;4333;48.322;14.340;2024-03-02T09:44:22;8.60;99.90
8591;DHT22;4333;48.322;14.340;2024-03-02T09:46:54;8.60;99.90
8591;DHT22;4333;48.322;14.340;2024-03-02T09:49:20;8.60;99.90
8591;DHT22;4333;48.322;14.340;2024-03-02T09:51:49;8.60;99.90
8591;DHT22;4333;48.322;14.340;2024-03-02T09:54:18;8.60;99.90
8591;DHT22;4333;48.322;14.340;2024-03-02T09:56:44;8.70;99.90
8591;DHT22;4333;48.322;14.340;2024-03-02T09:59:10;8.70;99.90
8591;DHT22;4333;48.322;14.340;2024-03-02T10:02:02;8.80;99.90
8591;DHT22;4333;48.322;14.340;2024-03-02T10:04:29;8.70;99.90
8591;DHT22;4333;48.322;14.340;2024-03-02T10:07:18;8.70;99.90
8591;DHT22;4333;48.322;14.340;2024-03-02T10:09:52;8.70;99.90
8591;DHT22;4333;48.322;14.340;2024-03-02T10:12:21;8.60;99.90
8591;DHT22;4333;48.322;14.340;2024-03-02T10:14:48;8.60;99.90
8591;DHT22;4333;48.322;14.340;2024-03-02T10:17:18;8.70;99.90
8591;DHT22;4333;48.322;14.340;2024-03-02T10:19:51;8.70;99.90
8591;DHT22;4333;48.322;14.340;2024-03-02T10:22:25;8.80;99.90
8591;DHT22;4333;48.322;14.340;2024-03-02T10:24:56;8.80;99.90
8591;DHT22;4333;48.322;14.340;2024-03-02T10:27:32;8.70;99.90
8591;DHT22;4333;48.322;14.340;2024-03-02T10:30:08;8.80;99.90
8591;DHT22;4333;48.322;14.340;2024-03-02T10:32:49;8.80;99.90
8591;DHT22;4333;48.322;14.340;2024-03-02T10:35:38;8.70;99.90
8591;DHT22;4333;48.322;14.340;2024-03-02T10:38:11;8.80;99.90
8591;DHT22;4333;48.322;14.340;2024-03-02T10:40:37;8.90;99.90
8591;DHT22;4333;48.322;14.340;2024-03-02T10:43:12;8.90;99.90
8591;DHT22;4333;48.322;14.340;2024-03-02T10:45:44;8.90;99.90
8591;DHT22;4333;48.322;14.340;2024-03-02T10:51:53;9.20;99.90
8591;DHT22;4333;48.322;14.340;2024-03-02T10:54:29;9.20;99.90
8591;DHT22;4333;48.322;14.340;2024-03-02T10:57:10;9.10;99.90
8591;DHT22;4333;48.322;14.340;2024-03-02T10:59:52;9.20;99.90
8591;DHT22;4333;48.322;14.340;2024-03-02T11:02:24;9.30;99.90
8591;DHT22;4333;48.322;14.340;2024-03-02T11:04:59;9.40;99.90
8591;DHT22;4333;48.322;14.340;2024-03-02T11:07:39;9.60;99.90
8591;DHT22;4333;48.322;14.340;2024-03-02T11:10:41;9.60;99.90
8591;DHT22;4333;48.322;14.340;2024-03-02T11:13:34;9.60;99.90
8591;DHT22;4333;48.322;14.340;2024-03-02T11:18:55;9.60;99.90
8591;DHT22;4333;48.322;14.340;2024-03-02T11:24:33;9.40;99.90
8591;DHT22;4333;48.322;14.340;2024-03-02T11:27:04;9.50;99.90
8591;DHT22;4333;48.322;14.340;2024-03-02T11:32:24;9.50;99.90
8591;DHT22;4333;48.322;14.340;2024-03-02T11:37:37;9.40;99.90
8591;DHT22;4333;48.322;14.340;2024-03-02T11:40:29;9.50;99.90
8591;DHT22;4333;48.322;14.340;2024-03-02T11:43:16;9.50;99.90
8591;DHT22;4333;48.322;14.340;2024-03-02T11:46:03;9.80;99.90
8591;DHT22;4333;48.322;14.340;2024-03-02T11:48:42;10.00;99.90
8591;DHT22;4333;48.322;14.340;2024-03-02T11:51:17;10.00;99.90
8591;DHT22;4333;48.322;14.340;2024-03-02T11:53:54;10.10;99.90
8591;DHT22;4333;48.322;14.340;2024-03-02T11:56:24;10.20;99.90
8591;DHT22;4333;48.322;14.340;2024-03-02T11:58:59;10.30;99.90
8591;DHT22;4333;48.322;14.340;2024-03-02T12:01:41;10.40;99.90
8591;DHT22;4333;48.322;14.340;2024-03-02T12:04:08;10.70;99.90
8591;DHT22;4333;48.322;14.340;2024-03-02T12:06:36;10.50;98.30
8591;DHT22;4333;48.322;14.340;2024-03-02T12:09:05;10.40;99.90
8591;DHT22;4333;48.322;14.340;2024-03-02T12:11:40;10.50;99.90
8591;DHT22;4333;48.322;14.340;2024-03-02T12:14:11;10.70;97.20
8591;DHT22;4333;48.322;14.340;2024-03-02T12:16:43;10.70;92.60
8591;DHT22;4333;48.322;14.340;2024-03-02T12:19:18;10.70;93.50
8591;DHT22;4333;48.322;14.340;2024-03-02T12:21:49;10.90;90.50
8591;DHT22;4333;48.322;14.340;2024-03-02T12:24:27;10.80;91.90
8591;DHT22;4333;48.322;14.340;2024-03-02T12:27:14;10.70;92.90
8591;DHT22;4333;48.322;14.340;2024-03-02T12:29:48;11.00;98.10
8591;DHT22;4333;48.322;14.340;2024-03-02T12:32:17;11.20;90.40
8591;DHT22;4333;48.322;14.340;2024-03-02T12:34:50;11.10;84.80
8591;DHT22;4333;48.322;14.340;2024-03-02T12:37:16;10.90;90.30
8591;DHT22;4333;48.322;14.340;2024-03-02T12:40:02;10.90;93.10
8591;DHT22;4333;48.322;14.340;2024-03-02T12:42:31;11.10;92.50
8591;DHT22;4333;48.322;14.340;2024-03-02T12:44:59;11.20;90.10
8591;DHT22;4333;48.322;14.340;2024-03-02T12:47:30;11.30;90.00
8591;DHT22;4333;48.322;14.340;2024-03-02T12:49:59;11.20;84.00
8591;DHT22;4333;48.322;14.340;2024-03-02T12:52:28;11.10;81.30
8591;DHT22;4333;48.322;14.340;2024-03-02T12:54:56;10.80;88.90
8591;DHT22;4333;48.322;14.340;2024-03-02T12:57:31;11.00;85.90
8591;DHT22;4333;48.322;14.340;2024-03-02T13:00:09;11.20;80.20
8591;DHT22;4333;48.322;14.340;2024-03-02T13:02:40;11.20;80.00
8591;DHT22;4333;48.322;14.340;2024-03-02T13:05:08;11.30;86.70
8591;DHT22;4333;48.322;14.340;2024-03-02T13:07:40;11.30;80.30
8591;DHT22;4333;48.322;14.340;2024-03-02T13:10:10;11.60;82.90
8591;DHT22;4333;48.322;14.340;2024-03-02T13:12:37;11.70;76.90
8591;DHT22;4333;48.322;14.340;2024-03-02T13:15:04;11.70;74.40
8591;DHT22;4333;48.322;14.340;2024-03-02T13:17:35;11.50;76.50
8591;DHT22;4333;48.322;14.340;2024-03-02T13:20:04;11.40;76.40
8591;DHT22;4333;48.322;14.340;2024-03-02T13:22:36;11.30;80.10
8591;DHT22;4333;48.322;14.340;2024-03-02T13:25:04;11.70;78.80
8591;DHT22;4333;48.322;14.340;2024-03-02T13:27:33;12.10;78.40
8591;DHT22;4333;48.322;14.340;2024-03-02T13:30:04;12.00;69.20
8591;DHT22;4333;48.322;14.340;2024-03-02T13:32:34;11.70;74.70
8591;DHT22;4333;48.322;14.340;2024-03-02T13:35:06;11.90;76.70
8591;DHT22;4333;48.322;14.340;2024-03-02T13:37:33;12.00;70.70
8591;DHT22;4333;48.322;14.340;2024-03-02T13:40:09;11.70;75.20
8591;DHT22;4333;48.322;14.340;2024-03-02T13:42:50;11.70;76.80
8591;DHT22;4333;48.322;14.340;2024-03-02T13:45:20;11.70;79.90
8591;DHT22;4333;48.322;14.340;2024-03-02T13:47:49;11.90;80.70
8591;DHT22;4333;48.322;14.340;2024-03-02T13:50:17;11.70;79.40
8591;DHT22;4333;48.322;14.340;2024-03-02T13:52:46;11.70;80.40
8591;DHT22;4333;48.322;14.340;2024-03-02T13:55:32;11.60;84.00
8591;DHT22;4333;48.322;14.340;2024-03-02T13:58:07;11.80;84.40
8591;DHT22;4333;48.322;14.340;2024-03-02T14:00:33;12.00;78.90
8591;DHT22;4333;48.322;14.340;2024-03-02T14:03:02;11.90;77.70
8591;DHT22;4333;48.322;14.340;2024-03-02T14:05:31;11.90;78.20
8591;DHT22;4333;48.322;14.340;2024-03-02T14:08:03;11.80;81.50
8591;DHT22;4333;48.322;14.340;2024-03-02T14:10:32;11.60;82.70
8591;DHT22;4333;48.322;14.340;2024-03-02T14:13:01;11.70;84.90
8591;DHT22;4333;48.322;14.340;2024-03-02T14:15:32;11.60;85.20
8591;DHT22;4333;48.322;14.340;2024-03-02T14:17:57;11.80;84.60
8591;DHT22;4333;48.322;14.340;2024-03-02T14:20:24;12.20;86.50
8591;DHT22;4333;48.322;14.340;2024-03-02T14:22:49;12.80;76.20
8591;DHT22;4333;48.322;14.340;2024-03-02T14:25:18;12.70;66.30
8591;DHT22;4333;48.322;14.340;2024-03-02T14:27:46;12.80;66.90
8591;DHT22;4333;48.322;14.340;2024-03-02T14:30:12;12.50;67.10
8591;DHT22;4333;48.322;14.340;2024-03-02T14:32:41;12.40;69.00
8591;DHT22;4333;48.322;14.340;2024-03-02T14:35:07;12.80;74.20
8591;DHT22;4333;48.322;14.340;2024-03-02T14:37:36;13.00;61.00
8591;DHT22;4333;48.322;14.340;2024-03-02T14:40:11;12.60;66.10
8591;DHT22;4333;48.322;14.340;2024-03-02T14:42:38;12.20;70.90
8591;DHT22;4333;48.322;14.340;2024-03-02T14:45:04;12.00;73.30
8591;DHT22;4333;48.322;14.340;2024-03-02T14:47:32;12.30;79.10
8591;DHT22;4333;48.322;14.340;2024-03-02T14:50:01;12.30;74.00
8591;DHT22;4333;48.322;14.340;2024-03-02T14:52:54;12.10;75.20
8591;DHT22;4333;48.322;14.340;2024-03-02T14:55:24;12.20;80.90
8591;DHT22;4333;48.322;14.340;2024-03-02T14:57:49;12.30;77.20
8591;DHT22;4333;48.322;14.340;2024-03-02T15:00:22;12.20;74.30
8591;DHT22;4333;48.322;14.340;2024-03-02T15:02:59;12.40;79.50
8591;DHT22;4333;48.322;14.340;2024-03-02T15:05:53;12.50;73.50
8591;DHT22;4333;48.322;14.340;2024-03-02T15:08:22;12.40;69.80
8591;DHT22;4333;48.322;14.340;2024-03-02T15:10:54;12.20;78.10
8591;DHT22;4333;48.322;14.340;2024-03-02T15:13:26;12.10;81.50
8591;DHT22;4333;48.322;14.340;2024-03-02T15:15:55;12.30;83.60
8591;DHT22;4333;48.322;14.340;2024-03-02T15:18:20;12.30;78.10
8591;DHT22;4333;48.322;14.340;2024-03-02T15:20:49;12.30;78.20
8591;DHT22;4333;48.322;14.340;2024-03-02T15:23:20;12.60;78.10
8591;DHT22;4333;48.322;14.340;2024-03-02T15:25:48;12.90;73.40
8591;DHT22;4333;48.322;14.340;2024-03-02T15:28:22;12.60;72.30
8591;DHT22;4333;48.322;14.340;2024-03-02T15:30:53;12.60;73.50
8591;DHT22;4333;48.322;14.340;2024-03-02T15:33:20;12.30;76.10
8591;DHT22;4333;48.322;14.340;2024-03-02T15:35:54;12.10;80.10
8591;DHT22;4333;48.322;14.340;2024-03-02T15:38:20;12.10;84.50
8591;DHT22;4333;48.322;14.340;2024-03-02T15:40:52;12.10;87.20
8591;DHT22;4333;48.322;14.340;2024-03-02T15:43:20;12.30;86.20
8591;DHT22;4333;48.322;14.340;2024-03-02T15:45:49;12.30;82.60
8591;DHT22;4333;48.322;14.340;2024-03-02T15:48:15;12.20;84.50
8591;DHT22;4333;48.322;14.340;2024-03-02T15:50:46;12.10;84.10
8591;DHT22;4333;48.322;14.340;2024-03-02T15:53:13;12.00;89.20
8591;DHT22;4333;48.322;14.340;2024-03-02T15:55:39;12.20;89.70
8591;DHT22;4333;48.322;14.340;2024-03-02T15:58:08;12.20;86.50
8591;DHT22;4333;48.322;14.340;2024-03-02T16:00:36;12.20;89.80
8591;DHT22;4333;48.322;14.340;2024-03-02T16:03:10;12.20;85.90
8591;DHT22;4333;48.322;14.340;2024-03-02T16:05:40;11.80;91.60
8591;DHT22;4333;48.322;14.340;2024-03-02T16:08:09;11.70;93.40
8591;DHT22;4333;48.322;14.340;2024-03-02T16:10:35;11.60;94.80
8591;DHT22;4333;48.322;14.340;2024-03-02T16:13:03;11.60;97.50
8591;DHT22;4333;48.322;14.340;2024-03-02T16:15:33;11.70;96.50
8591;DHT22;4333;48.322;14.340;2024-03-02T16:18:02;11.60;94.80
8591;DHT22;4333;48.322;14.340;2024-03-02T16:20:28;11.50;96.90
8591;DHT22;4333;48.322;14.340;2024-03-02T16:23:02;11.60;98.70
8591;DHT22;4333;48.322;14.340;2024-03-02T16:25:30;11.60;97.00
8591;DHT22;4333;48.322;14.340;2024-03-02T16:28:03;11.60;97.50
8591;DHT22;4333;48.322;14.340;2024-03-02T16:30:35;11.60;97.30